Terminal Aerodrome Forecast
Issued by NWS

Home | Current Version | Previous Version | Graphics & Text | Print | Product List | Glossary On
Versions: 1 2 3 4 5 6 7 8 9 10 11 12
000
FTUS43 KIWX 150521
TAFSBN
TAF
KSBN 150521Z 1506/1606 20004KT P6SM VCSH SCT060 BKN100
     FM151200 24004KT P6SM SCT030 BKN050
     FM151600 31006KT P6SM SCT070=

USA.gov is the U.S. government's official web portal to all federal, state and local government web resources and services.